createdAt,value
2022-12-11T00:00:46.258Z,11.58
2022-12-11T00:03:16.115Z,11.62
2022-12-11T00:05:44.612Z,11.60
2022-12-11T00:08:12.337Z,11.69
2022-12-11T00:10:39.619Z,11.52
2022-12-11T00:13:06.644Z,10.96
2022-12-11T00:15:33.790Z,11.50
2022-12-11T00:18:00.857Z,11.59
2022-12-11T00:20:27.806Z,11.62
2022-12-11T00:22:54.738Z,11.60
2022-12-11T00:25:21.683Z,11.57
2022-12-11T00:27:48.829Z,11.59
2022-12-11T00:30:15.886Z,11.34
2022-12-11T00:32:44.263Z,11.51
2022-12-11T00:35:11.594Z,10.92
2022-12-11T00:37:38.880Z,11.46
2022-12-11T00:40:06.370Z,11.35
2022-12-11T00:42:33.310Z,11.05
2022-12-11T00:45:00.340Z,11.10
2022-12-11T00:47:27.415Z,11.59
2022-12-11T00:49:54.363Z,11.63
2022-12-11T00:52:21.374Z,11.66
2022-12-11T00:54:48.479Z,11.42
2022-12-11T00:57:15.451Z,11.29
2022-12-11T00:59:42.385Z,11.11
2022-12-11T01:02:09.475Z,11.71
2022-12-11T01:04:37.291Z,11.81
2022-12-11T01:07:04.260Z,11.61
2022-12-11T01:09:49.887Z,11.71
2022-12-11T01:12:18.022Z,11.64
2022-12-11T01:14:45.335Z,11.80
2022-12-11T01:17:13.500Z,11.70
2022-12-11T01:19:41.413Z,11.81
2022-12-11T01:22:08.802Z,11.81
2022-12-11T01:24:36.209Z,11.62
2022-12-11T01:27:04.649Z,11.80
2022-12-11T01:29:32.730Z,11.83
2022-12-11T01:31:59.716Z,11.76
2022-12-11T01:34:30.725Z,11.67
2022-12-11T01:36:58.055Z,11.92
2022-12-11T01:39:25.504Z,11.69
2022-12-11T01:41:57.566Z,11.79
2022-12-11T01:44:24.484Z,11.74
2022-12-11T01:46:51.676Z,11.78
2022-12-11T01:49:21.614Z,11.77
2022-12-11T01:51:57.967Z,11.81
2022-12-11T01:54:28.016Z,11.57
2022-12-11T01:56:59.022Z,11.68
2022-12-11T01:59:29.536Z,11.61
2022-12-11T02:02:08.749Z,11.64
2022-12-11T02:04:39.217Z,11.71
2022-12-11T02:07:06.583Z,11.69
2022-12-11T02:09:37.473Z,11.77
2022-12-11T02:12:24.590Z,11.63
2022-12-11T02:15:30.137Z,11.59
2022-12-11T02:17:59.752Z,11.61
2022-12-11T02:20:37.001Z,11.79
2022-12-11T02:23:12.961Z,11.96
2022-12-11T02:26:10.938Z,12.11
2022-12-11T02:28:54.161Z,12.12
2022-12-11T02:31:46.005Z,12.28
2022-12-11T02:34:20.610Z,12.14
2022-12-11T02:36:52.856Z,12.07
2022-12-11T02:39:22.718Z,12.26
2022-12-11T02:41:51.894Z,12.40
2022-12-11T02:44:24.345Z,12.42
2022-12-11T02:46:52.939Z,12.39
2022-12-11T02:49:21.887Z,12.24
2022-12-11T02:51:49.645Z,12.42
2022-12-11T02:54:24.018Z,12.35
2022-12-11T02:56:59.472Z,12.32
2022-12-11T02:59:33.300Z,12.45
2022-12-11T03:02:00.996Z,12.20
2022-12-11T03:04:29.450Z,12.23
2022-12-11T03:07:00.134Z,12.39
2022-12-11T03:09:28.638Z,12.40
2022-12-11T03:11:55.699Z,12.33
2022-12-11T03:14:22.620Z,12.19
2022-12-11T03:17:01.722Z,12.08
2022-12-11T03:19:37.234Z,12.34
2022-12-11T03:22:16.558Z,12.29
2022-12-11T03:24:53.238Z,12.26
2022-12-11T03:27:28.858Z,12.23
2022-12-11T03:30:11.569Z,12.32
2022-12-11T03:32:43.533Z,12.35
2022-12-11T03:35:33.011Z,12.39
2022-12-11T03:38:05.511Z,12.25
2022-12-11T03:40:35.894Z,12.44
2022-12-11T03:43:05.328Z,12.45
2022-12-11T03:45:33.540Z,12.41
2022-12-11T03:48:02.772Z,12.19
2022-12-11T03:50:32.503Z,12.36
2022-12-11T03:53:01.895Z,12.47
2022-12-11T03:55:30.562Z,12.54
2022-12-11T03:57:57.553Z,12.52
2022-12-11T04:00:25.052Z,12.82
2022-12-11T04:03:13.541Z,12.82
2022-12-11T04:05:47.340Z,12.99
2022-12-11T04:08:15.455Z,12.84
2022-12-11T04:10:42.706Z,12.78
2022-12-11T04:13:10.737Z,13.18
2022-12-11T04:15:38.415Z,13.27
2022-12-11T04:18:25.077Z,13.34
2022-12-11T04:21:14.530Z,13.33
2022-12-11T04:23:59.953Z,13.49
2022-12-11T04:26:27.304Z,13.38
2022-12-11T04:28:54.314Z,13.55
2022-12-11T04:31:22.504Z,13.43
2022-12-11T04:33:49.592Z,13.76
2022-12-11T04:36:16.918Z,13.76
2022-12-11T04:38:43.875Z,13.95
2022-12-11T04:41:14.269Z,14.09
2022-12-11T04:43:42.072Z,14.23
2022-12-11T04:46:16.197Z,14.41
2022-12-11T04:48:43.326Z,14.49
2022-12-11T04:51:10.738Z,14.41
2022-12-11T04:53:38.019Z,14.42
2022-12-11T04:56:06.681Z,14.54
2022-12-11T04:58:33.785Z,14.16
2022-12-11T05:01:00.880Z,14.39
2022-12-11T05:03:27.697Z,14.38
2022-12-11T05:05:54.742Z,14.52
2022-12-11T05:08:22.345Z,14.49
2022-12-11T05:11:04.165Z,14.57
2022-12-11T05:13:31.564Z,14.85
2022-12-11T05:15:59.541Z,15.07
2022-12-11T05:18:29.126Z,14.71
2022-12-11T05:21:05.049Z,15.10
2022-12-11T05:23:32.554Z,15.01
2022-12-11T05:26:01.943Z,15.01
2022-12-11T05:28:32.382Z,15.02
2022-12-11T05:31:05.771Z,15.09
2022-12-11T05:33:34.387Z,15.03
2022-12-11T05:36:01.495Z,15.05
2022-12-11T05:38:28.532Z,15.07
2022-12-11T05:41:00.719Z,15.16
2022-12-11T05:43:29.693Z,15.24
2022-12-11T05:46:04.584Z,15.21
2022-12-11T05:48:31.663Z,15.33
2022-12-11T05:51:00.685Z,15.17
2022-12-11T05:53:28.730Z,15.25
2022-12-11T05:56:00.805Z,15.10
2022-12-11T05:58:28.673Z,15.08
2022-12-11T06:00:55.660Z,15.09
2022-12-11T06:03:22.616Z,15.10
2022-12-11T06:05:49.522Z,15.31
2022-12-11T06:08:16.466Z,15.20
2022-12-11T06:10:50.263Z,15.33
2022-12-11T06:13:18.446Z,15.41
2022-12-11T06:15:45.375Z,15.52
2022-12-11T06:18:12.490Z,15.42
2022-12-11T06:20:39.641Z,15.29
2022-12-11T06:23:06.721Z,15.32
2022-12-11T06:25:34.475Z,15.36
2022-12-11T06:28:01.585Z,15.30
2022-12-11T06:30:39.012Z,15.32
2022-12-11T06:33:07.498Z,15.35
2022-12-11T06:35:40.237Z,15.32
2022-12-11T06:38:09.504Z,15.27
2022-12-11T06:40:36.597Z,15.47
2022-12-11T06:43:03.648Z,15.35
2022-12-11T06:45:31.049Z,15.42
2022-12-11T06:47:59.092Z,15.25
2022-12-11T06:50:26.870Z,15.35
2022-12-11T06:52:53.743Z,15.42
2022-12-11T06:55:20.760Z,15.47
2022-12-11T06:57:47.830Z,15.52
2022-12-11T07:00:15.432Z,15.60
2022-12-11T07:02:42.427Z,15.65
2022-12-11T07:05:09.638Z,15.73
2022-12-11T07:07:36.836Z,15.77
2022-12-11T07:10:08.435Z,15.89
2022-12-11T07:12:36.080Z,15.94
2022-12-11T07:15:05.287Z,15.74
2022-12-11T07:17:32.763Z,16.07
2022-12-11T07:19:59.775Z,15.96
2022-12-11T07:22:28.586Z,15.83
2022-12-11T07:24:56.149Z,15.85
2022-12-11T07:27:23.409Z,16.09
2022-12-11T07:29:51.266Z,16.06
2022-12-11T07:32:18.334Z,16.17
2022-12-11T07:34:51.371Z,16.16
2022-12-11T07:37:19.046Z,16.11
2022-12-11T07:39:45.907Z,16.09
2022-12-11T07:42:12.842Z,16.14
2022-12-11T07:44:39.813Z,16.03
2022-12-11T07:47:06.741Z,16.13
2022-12-11T07:49:33.634Z,16.21
2022-12-11T07:52:00.673Z,16.04
2022-12-11T07:54:27.590Z,16.32
2022-12-11T07:56:54.512Z,16.43
2022-12-11T07:59:21.622Z,16.31
2022-12-11T08:01:48.627Z,16.42
2022-12-11T08:04:15.992Z,16.26
2022-12-11T08:06:44.020Z,16.46
2022-12-11T08:09:19.075Z,16.52
2022-12-11T08:11:50.115Z,16.35
2022-12-11T08:14:17.067Z,16.49
2022-12-11T08:16:44.902Z,16.47
2022-12-11T08:19:12.784Z,16.73
2022-12-11T08:21:40.685Z,16.59
2022-12-11T08:24:08.944Z,16.47
2022-12-11T08:26:36.716Z,16.32
2022-12-11T08:29:04.362Z,16.06
2022-12-11T08:31:33.387Z,16.41
2022-12-11T08:34:00.467Z,16.43
2022-12-11T08:36:28.168Z,16.49
2022-12-11T08:38:56.907Z,16.54
2022-12-11T08:41:27.496Z,16.69
2022-12-11T08:43:55.525Z,16.74
2022-12-11T08:46:25.406Z,16.56
2022-12-11T08:48:54.134Z,16.40
2022-12-11T08:51:23.616Z,16.65
2022-12-11T08:53:51.565Z,16.70
2022-12-11T08:56:20.917Z,16.52
2022-12-11T08:58:48.293Z,16.56
2022-12-11T09:01:22.187Z,16.48
2022-12-11T09:03:50.390Z,16.44
2022-12-11T09:06:19.857Z,16.45
2022-12-11T09:08:52.213Z,16.43
2022-12-11T09:11:26.904Z,16.29
2022-12-11T09:13:54.895Z,16.33
2022-12-11T09:16:25.227Z,16.37
2022-12-11T09:18:55.001Z,16.35
2022-12-11T09:21:24.662Z,16.38
2022-12-11T09:23:55.132Z,16.32
2022-12-11T09:26:22.495Z,16.18
2022-12-11T09:28:53.452Z,16.62
2022-12-11T09:31:23.899Z,16.67
2022-12-11T09:33:54.263Z,16.53
2022-12-11T09:36:21.386Z,16.28
2022-12-11T09:38:48.842Z,16.68
2022-12-11T09:41:32.911Z,16.75
2022-12-11T09:44:21.393Z,16.75
2022-12-11T09:46:49.126Z,16.76
2022-12-11T09:49:25.244Z,16.67
2022-12-11T09:52:06.372Z,16.47
2022-12-11T09:54:34.000Z,16.49
2022-12-11T09:57:19.437Z,16.84
2022-12-11T10:00:04.259Z,16.92
2022-12-11T10:03:01.043Z,16.88
2022-12-11T10:05:59.668Z,16.91
2022-12-11T10:08:40.262Z,17.01
2022-12-11T10:11:28.519Z,17.11
2022-12-11T10:14:07.085Z,17.07
2022-12-11T10:16:52.119Z,17.10
2022-12-11T10:19:24.811Z,16.76
2022-12-11T10:21:53.345Z,16.85
2022-12-11T10:24:48.924Z,16.90
2022-12-11T10:27:20.071Z,16.80
2022-12-11T10:29:51.877Z,16.77
2022-12-11T10:32:57.475Z,16.54
2022-12-11T10:35:35.178Z,16.39
2022-12-11T10:38:13.346Z,16.21
2022-12-11T10:40:46.822Z,16.19
2022-12-11T10:43:14.158Z,16.23
2022-12-11T10:45:50.895Z,16.28
2022-12-11T10:48:17.857Z,16.23
2022-12-11T10:51:00.376Z,16.44
2022-12-11T10:53:29.123Z,16.55
2022-12-11T10:55:58.983Z,16.56
2022-12-11T10:58:34.282Z,16.56
2022-12-11T11:01:14.392Z,16.48
2022-12-11T11:04:13.931Z,16.51
2022-12-11T11:06:41.185Z,16.78
2022-12-11T11:09:29.702Z,16.88
2022-12-11T11:11:56.723Z,16.85
2022-12-11T11:14:23.817Z,17.02
2022-12-11T11:16:53.003Z,16.45
2022-12-11T11:19:27.593Z,17.15
2022-12-11T11:22:00.881Z,17.14
2022-12-11T11:24:33.227Z,17.22
2022-12-11T11:27:15.710Z,16.93
2022-12-11T11:29:47.678Z,17.05
2022-12-11T11:32:31.151Z,17.14
2022-12-11T11:35:13.737Z,17.19
2022-12-11T11:37:46.595Z,17.18
2022-12-11T11:40:21.490Z,17.27
2022-12-11T11:43:07.965Z,17.42
2022-12-11T11:45:44.117Z,17.50
2022-12-11T11:48:16.725Z,17.58
2022-12-11T11:50:46.895Z,17.64
2022-12-11T11:53:37.670Z,17.55
2022-12-11T11:56:17.335Z,17.60
2022-12-11T11:59:03.165Z,17.58
2022-12-11T12:01:30.484Z,17.47
2022-12-11T12:03:58.107Z,17.38
2022-12-11T12:06:48.972Z,17.35
2022-12-11T12:09:39.338Z,17.29
2022-12-11T12:12:09.724Z,17.27
2022-12-11T12:15:05.794Z,17.12
2022-12-11T12:17:56.272Z,17.16
2022-12-11T12:20:32.326Z,17.01
2022-12-11T12:23:08.370Z,17.11
2022-12-11T12:26:14.955Z,17.08
2022-12-11T12:28:53.151Z,16.70
2022-12-11T12:31:57.804Z,15.83
2022-12-11T12:34:43.070Z,14.76
2022-12-11T12:37:40.121Z,13.97
2022-12-11T12:40:22.762Z,13.40
2022-12-11T12:42:52.673Z,12.69
2022-12-11T12:45:32.226Z,11.76
2022-12-11T12:47:59.429Z,11.30
2022-12-11T12:50:35.045Z,10.57
2022-12-11T12:53:02.540Z,9.92
2022-12-11T12:55:31.932Z,9.67
2022-12-11T12:58:20.635Z,9.25
2022-12-11T13:00:47.951Z,8.60
2022-12-11T13:03:17.819Z,8.72
2022-12-11T13:05:59.274Z,8.60
2022-12-11T13:08:50.795Z,8.21
2022-12-11T13:39:31.781Z,6.28
2022-12-11T13:42:02.820Z,6.80
2022-12-11T13:44:41.841Z,6.49
2022-12-11T13:47:16.142Z,6.45
2022-12-11T13:49:46.273Z,6.50
2022-12-11T13:52:28.872Z,6.29
2022-12-11T13:54:59.522Z,6.11
2022-12-11T13:57:28.739Z,6.34
2022-12-11T13:59:59.696Z,6.27
2022-12-11T14:02:38.371Z,6.14
2022-12-11T14:05:09.833Z,5.95
2022-12-11T14:07:42.508Z,5.62
2022-12-11T14:10:26.842Z,6.15
2022-12-11T14:12:59.715Z,6.04
2022-12-11T14:15:30.121Z,5.96
2022-12-11T14:17:59.465Z,5.66
2022-12-11T14:20:30.347Z,5.64
2022-12-11T14:23:17.505Z,5.87
2022-12-11T14:25:59.966Z,5.87
2022-12-11T14:28:36.090Z,5.59
2022-12-11T14:31:05.872Z,5.44
2022-12-11T14:33:38.468Z,5.65
2022-12-11T14:36:06.847Z,5.48
2022-12-11T14:38:38.422Z,5.48
2022-12-11T14:41:16.892Z,5.54
2022-12-11T14:43:48.777Z,5.26
2022-12-11T14:46:48.650Z,5.42
2022-12-11T14:49:34.630Z,5.22
2022-12-11T14:52:03.155Z,4.86
2022-12-11T14:54:41.261Z,5.01
2022-12-11T14:57:17.902Z,4.88
2022-12-11T14:59:47.841Z,5.07
2022-12-11T15:02:33.399Z,4.85
2022-12-11T15:05:03.573Z,4.86
2022-12-11T15:07:30.904Z,4.52
2022-12-11T15:09:58.680Z,4.89
2022-12-11T15:12:25.968Z,4.92
2022-12-11T15:15:07.106Z,4.82
2022-12-11T15:17:37.238Z,4.83
2022-12-11T15:20:11.634Z,4.73
2022-12-11T15:22:44.923Z,4.66
2022-12-11T15:25:20.746Z,4.51
2022-12-11T15:27:53.101Z,4.56
2022-12-11T15:30:28.553Z,4.64
2022-12-11T15:33:22.310Z,4.65
2022-12-11T15:35:53.845Z,4.57
2022-12-11T15:38:35.524Z,4.61
2022-12-11T15:41:03.791Z,4.61
2022-12-11T15:43:34.882Z,4.57
2022-12-11T15:46:03.503Z,4.54
2022-12-11T15:48:30.469Z,4.32
2022-12-11T15:50:57.518Z,3.99
2022-12-11T15:53:24.780Z,4.16
2022-12-11T15:55:52.790Z,4.27
2022-12-11T15:58:22.031Z,4.31
2022-12-11T16:00:49.319Z,4.27
2022-12-11T16:03:18.910Z,4.22
2022-12-11T16:05:46.859Z,4.15
2022-12-11T16:08:16.633Z,4.26
2022-12-11T16:10:45.345Z,4.24
2022-12-11T16:13:13.250Z,4.02
2022-12-11T16:15:46.207Z,4.17
2022-12-11T16:18:16.535Z,4.23
2022-12-11T16:20:45.176Z,4.08
2022-12-11T16:23:13.647Z,4.10
2022-12-11T16:25:42.301Z,4.10
2022-12-11T16:28:11.127Z,3.97
2022-12-11T16:30:38.693Z,3.97
2022-12-11T16:33:12.540Z,4.06
2022-12-11T16:35:49.481Z,3.95
2022-12-11T16:38:19.705Z,4.08
2022-12-11T16:40:52.729Z,2.62
2022-12-11T16:43:20.884Z,3.11
2022-12-11T16:45:54.599Z,3.77
2022-12-11T16:48:22.209Z,4.33
2022-12-11T16:50:49.144Z,4.21
2022-12-11T16:53:17.573Z,4.20
2022-12-11T16:55:44.788Z,4.22
2022-12-11T16:58:16.300Z,4.39
2022-12-11T17:00:43.383Z,4.27
2022-12-11T17:03:10.923Z,4.39
2022-12-11T17:05:42.752Z,4.01
2022-12-11T17:08:10.237Z,4.35
2022-12-11T17:10:41.748Z,4.35
2022-12-11T17:13:08.916Z,4.12
2022-12-11T17:15:40.611Z,4.27
2022-12-11T17:18:07.822Z,4.43
2022-12-11T17:20:34.864Z,4.43
2022-12-11T17:23:01.860Z,4.43
2022-12-11T17:25:29.082Z,4.26
2022-12-11T17:27:56.984Z,4.34
2022-12-11T17:30:24.100Z,4.21
2022-12-11T17:32:51.129Z,4.15
2022-12-11T17:35:18.542Z,4.25
2022-12-11T17:37:45.517Z,4.31
2022-12-11T17:40:12.461Z,4.19
2022-12-11T17:42:39.524Z,4.08
2022-12-11T17:45:07.286Z,3.97
2022-12-11T17:47:34.608Z,4.14
2022-12-11T17:50:01.611Z,3.84
2022-12-11T17:52:34.412Z,3.54
2022-12-11T17:55:05.110Z,4.03
2022-12-11T17:57:32.254Z,3.75
2022-12-11T17:59:59.372Z,3.76
2022-12-11T18:02:26.590Z,3.62
2022-12-11T18:04:55.137Z,3.52
2022-12-11T18:07:22.840Z,3.48
2022-12-11T18:09:50.397Z,3.84
2022-12-11T18:12:18.126Z,3.89
2022-12-11T18:14:45.063Z,3.85
2022-12-11T18:17:12.506Z,3.86
2022-12-11T18:19:45.688Z,3.82
2022-12-11T18:22:14.141Z,3.83
2022-12-11T18:24:41.170Z,3.86
2022-12-11T18:27:10.998Z,3.79
2022-12-11T18:29:38.407Z,3.66
2022-12-11T18:32:05.554Z,3.81
2022-12-11T18:34:32.582Z,3.88
2022-12-11T18:36:59.709Z,3.84
2022-12-11T18:39:26.873Z,3.89
2022-12-11T18:42:23.945Z,3.95
2022-12-11T18:44:43.364Z,3.99
2022-12-11T18:47:13.578Z,4.02
2022-12-11T18:49:41.383Z,3.50
2022-12-11T18:52:08.646Z,3.95
2022-12-11T18:54:36.447Z,3.98
2022-12-11T18:57:03.929Z,3.80
2022-12-11T18:59:31.129Z,3.43
2022-12-11T19:01:58.632Z,3.85
2022-12-11T19:04:25.549Z,3.81
2022-12-11T19:06:52.988Z,3.91
2022-12-11T19:09:22.867Z,3.92
2022-12-11T19:11:51.501Z,3.85
2022-12-11T19:14:23.136Z,3.79
2022-12-11T19:16:50.885Z,3.64
2022-12-11T19:19:20.834Z,3.67
2022-12-11T19:21:48.778Z,3.83
2022-12-11T19:24:20.072Z,3.73
2022-12-11T19:26:47.348Z,3.80
2022-12-11T19:29:27.112Z,3.82
2022-12-11T19:31:55.828Z,3.76
2022-12-11T19:34:24.103Z,3.76
2022-12-11T19:36:51.491Z,3.98
2022-12-11T19:39:19.747Z,3.81
2022-12-11T19:41:47.120Z,3.84
2022-12-11T19:44:14.489Z,3.77
2022-12-11T19:46:41.784Z,3.70
2022-12-11T19:49:11.245Z,3.76
2022-12-11T19:51:41.375Z,3.65
2022-12-11T19:54:12.334Z,3.68
2022-12-11T19:56:39.289Z,3.63
2022-12-11T19:59:08.828Z,3.63
2022-12-11T20:01:37.696Z,3.79
2022-12-11T20:04:07.731Z,3.72
2022-12-11T20:06:37.357Z,3.58
2022-12-11T20:09:05.346Z,3.72
2022-12-11T20:11:33.484Z,3.63
2022-12-11T20:14:00.877Z,3.30
2022-12-11T20:16:53.731Z,3.41
2022-12-11T20:19:15.517Z,3.46
2022-12-11T20:21:42.758Z,3.50
2022-12-11T20:24:10.455Z,3.65
2022-12-11T20:26:38.253Z,3.69
2022-12-11T20:29:07.934Z,3.76
2022-12-11T20:31:36.584Z,3.48
2022-12-11T20:34:04.836Z,3.98
2022-12-11T20:36:32.231Z,3.93
2022-12-11T20:38:59.325Z,4.11
2022-12-11T20:41:27.588Z,4.02
2022-12-11T20:43:54.541Z,4.13
2022-12-11T20:46:25.357Z,4.11
2022-12-11T20:48:53.496Z,4.14
2022-12-11T20:51:26.127Z,4.17
2022-12-11T20:53:57.649Z,4.15
2022-12-11T20:56:26.905Z,4.28
2022-12-11T20:58:53.826Z,4.31
2022-12-11T21:01:23.291Z,4.33
2022-12-11T21:04:00.554Z,4.22
2022-12-11T21:06:33.127Z,4.13
2022-12-11T21:09:02.988Z,4.07
2022-12-11T21:11:30.241Z,3.89
2022-12-11T21:14:04.656Z,3.86
2022-12-11T21:16:32.176Z,3.86
2022-12-11T21:18:59.491Z,3.80
2022-12-11T21:21:26.871Z,3.92
2022-12-11T21:23:54.754Z,3.97
2022-12-11T21:26:22.254Z,4.05
2022-12-11T21:28:49.265Z,3.98
2022-12-11T21:31:18.270Z,4.12
2022-12-11T21:33:46.150Z,3.98
2022-12-11T21:36:15.350Z,4.01
2022-12-11T21:38:43.916Z,3.99
2022-12-11T21:41:13.614Z,3.98
2022-12-11T21:44:03.217Z,4.03
2022-12-11T21:46:29.904Z,4.19
2022-12-11T21:48:56.884Z,4.09
2022-12-11T21:51:37.657Z,4.07
2022-12-11T21:54:06.975Z,4.23
2022-12-11T21:56:34.592Z,4.28
2022-12-11T21:59:02.687Z,4.32
2022-12-11T22:01:33.582Z,4.42
2022-12-11T22:04:01.247Z,4.31
2022-12-11T22:06:28.398Z,4.29
2022-12-11T22:08:55.450Z,3.70
2022-12-11T22:11:27.085Z,4.46
2022-12-11T22:13:54.580Z,4.48
2022-12-11T22:16:21.750Z,4.58
2022-12-11T22:18:48.905Z,4.45
2022-12-11T22:21:16.532Z,4.41
2022-12-11T22:23:44.645Z,4.65
2022-12-11T22:26:19.519Z,4.57
2022-12-11T22:28:47.163Z,4.51
2022-12-11T22:31:16.823Z,4.49
2022-12-11T22:33:44.665Z,4.64
2022-12-11T22:36:12.105Z,4.42
2022-12-11T22:38:39.717Z,4.55
2022-12-11T22:41:11.775Z,4.25
2022-12-11T22:43:39.011Z,4.53
2022-12-11T22:46:06.306Z,4.51
2022-12-11T22:48:33.534Z,4.53
2022-12-11T22:51:05.345Z,4.58
2022-12-11T22:53:32.405Z,4.67
2022-12-11T22:55:59.598Z,4.55
2022-12-11T22:58:26.596Z,4.76
2022-12-11T23:00:53.633Z,4.79
2022-12-11T23:03:20.731Z,4.80
2022-12-11T23:05:47.736Z,4.76
2022-12-11T23:08:14.755Z,4.93
2022-12-11T23:10:42.164Z,4.85
2022-12-11T23:13:09.123Z,4.92
2022-12-11T23:15:36.253Z,5.07
2022-12-11T23:18:03.331Z,4.33
2022-12-11T23:20:30.380Z,4.97
2022-12-11T23:22:57.866Z,5.02
2022-12-11T23:25:25.035Z,4.93
2022-12-11T23:27:52.126Z,4.91
2022-12-11T23:30:19.062Z,4.90
2022-12-11T23:32:46.115Z,4.90
2022-12-11T23:35:13.381Z,4.84
2022-12-11T23:37:40.598Z,4.77
2022-12-11T23:40:09.197Z,4.68
2022-12-11T23:42:36.320Z,3.88
2022-12-11T23:45:03.594Z,4.53
2022-12-11T23:47:31.004Z,4.37
2022-12-11T23:49:58.101Z,4.66
2022-12-11T23:52:27.999Z,4.71
2022-12-11T23:54:55.477Z,4.94
2022-12-11T23:57:23.447Z,4.61
2022-12-11T23:59:50.521Z,4.61
